createdAt,value
2023-08-29T00:00:57.758Z,0.20
2023-08-29T00:03:37.004Z,0.40
2023-08-29T00:06:10.429Z,0.30
2023-08-29T00:09:02.438Z,0.20
2023-08-29T00:11:43.584Z,0.40
2023-08-29T00:24:36.815Z,0.30
2023-08-29T00:38:06.575Z,0.40
2023-08-29T00:40:42.882Z,0.40
2023-08-29T00:50:30.440Z,0.28
2023-08-29T00:56:36.753Z,0.40
2023-08-29T00:59:40.923Z,0.52
2023-08-29T01:08:08.302Z,0.30
2023-08-29T01:11:18.029Z,0.50
2023-08-29T01:54:34.162Z,0.43
2023-08-29T02:00:39.904Z,0.40
2023-08-29T02:03:11.606Z,0.55
2023-08-29T02:05:48.263Z,0.50
2023-08-29T02:08:40.857Z,0.40
2023-08-29T02:11:22.579Z,0.50
2023-08-29T02:14:06.613Z,0.50
2023-08-29T02:16:35.774Z,0.60
2023-08-29T02:22:22.873Z,0.35
2023-08-29T02:24:52.075Z,0.40
2023-08-29T02:27:25.496Z,0.52
2023-08-29T02:29:55.017Z,0.70
2023-08-29T02:32:22.857Z,0.63
2023-08-29T02:34:58.597Z,0.32
2023-08-29T02:37:28.490Z,0.40
2023-08-29T02:40:17.200Z,0.57
2023-08-29T02:42:48.899Z,0.50
2023-08-29T02:45:15.614Z,0.50
2023-08-29T02:47:42.381Z,0.60
2023-08-29T02:50:10.662Z,0.70
2023-08-29T02:52:43.483Z,0.38
2023-08-29T02:55:22.332Z,0.60
2023-08-29T02:57:48.995Z,0.70
2023-08-29T03:00:16.352Z,0.77
2023-08-29T03:02:43.493Z,0.50
2023-08-29T03:05:12.580Z,0.90
2023-08-29T03:07:41.300Z,1.00
2023-08-29T03:10:09.288Z,0.73
2023-08-29T03:12:36.163Z,0.70
2023-08-29T03:15:03.578Z,0.60
2023-08-29T03:17:31.348Z,1.08
2023-08-29T03:46:04.206Z,0.73
2023-08-29T03:48:45.423Z,0.90
2023-08-29T03:51:33.143Z,0.85
2023-08-29T03:54:57.923Z,0.90
2023-08-29T03:57:56.833Z,1.10
2023-08-29T04:00:30.535Z,1.30
2023-08-29T04:03:22.398Z,1.15
2023-08-29T04:05:54.054Z,1.30
2023-08-29T04:08:34.755Z,1.00
2023-08-29T04:11:08.393Z,1.17
2023-08-29T04:13:35.934Z,1.50
2023-08-29T04:16:04.547Z,1.35
2023-08-29T04:18:35.783Z,1.00
2023-08-29T04:21:23.623Z,0.98
2023-08-29T04:23:56.385Z,1.10
2023-08-29T04:26:32.690Z,1.00
2023-08-29T04:29:00.428Z,1.07
2023-08-29T04:31:27.128Z,0.95
2023-08-29T04:33:54.841Z,1.00
2023-08-29T04:36:21.583Z,1.38
2023-08-29T04:38:49.346Z,1.10
2023-08-29T04:41:17.111Z,1.30
2023-08-29T04:43:48.086Z,1.42
2023-08-29T04:46:24.827Z,1.00
2023-08-29T04:49:05.858Z,1.42
2023-08-29T04:51:38.289Z,1.55
2023-08-29T04:54:07.340Z,1.60
2023-08-29T04:56:34.630Z,1.52
2023-08-29T04:59:10.019Z,1.30
2023-08-29T05:01:39.173Z,1.05
2023-08-29T05:04:06.968Z,1.02
2023-08-29T05:06:37.235Z,0.98
2023-08-29T05:09:08.723Z,1.08
2023-08-29T05:11:36.734Z,1.20
2023-08-29T05:14:04.762Z,0.95
2023-08-29T05:16:39.136Z,1.30
2023-08-29T05:19:15.405Z,0.82
2023-08-29T05:21:43.344Z,1.23
2023-08-29T05:24:10.226Z,1.05
2023-08-29T05:26:37.431Z,0.90
2023-08-29T05:29:04.705Z,0.85
2023-08-29T05:31:35.769Z,0.90
2023-08-29T06:25:13.771Z,0.80
2023-08-29T06:28:11.206Z,0.80
2023-08-29T06:31:08.248Z,1.17
2023-08-29T06:33:57.693Z,0.60
2023-08-29T06:36:47.538Z,0.98
2023-08-29T06:39:29.881Z,0.80
2023-08-29T06:42:01.403Z,0.70
2023-08-29T06:44:42.889Z,0.73
2023-08-29T06:47:16.545Z,0.95
2023-08-29T06:49:52.141Z,0.85
2023-08-29T06:52:29.245Z,0.90
2023-08-29T06:55:41.875Z,0.85
2023-08-29T06:58:24.191Z,0.90
2023-08-29T07:00:56.101Z,0.85
2023-08-29T07:03:25.284Z,0.70
2023-08-29T07:06:09.318Z,1.10
2023-08-29T07:08:42.736Z,0.98
2023-08-29T07:11:10.453Z,1.00
2023-08-29T07:13:48.542Z,0.70
2023-08-29T07:16:17.569Z,0.90
2023-08-29T07:18:47.710Z,0.80
2023-08-29T07:21:17.805Z,0.82
2023-08-29T07:23:45.913Z,0.95
2023-08-29T07:26:12.864Z,0.65
2023-08-29T07:28:45.184Z,0.82
2023-08-29T07:31:13.485Z,1.00
2023-08-29T07:33:40.789Z,0.82
2023-08-29T07:36:08.697Z,1.08
2023-08-29T07:38:38.290Z,0.95
2023-08-29T07:41:14.819Z,0.80
2023-08-29T07:44:17.534Z,1.02
2023-08-29T07:47:07.825Z,1.05
2023-08-29T07:49:41.718Z,0.93
2023-08-29T07:55:31.836Z,1.05
2023-08-29T07:58:08.072Z,2.00
2023-08-29T08:00:48.440Z,1.15
2023-08-29T08:03:21.125Z,1.02
2023-08-29T08:06:08.065Z,1.27
2023-08-29T08:08:40.739Z,1.40
2023-08-29T08:11:07.760Z,1.73
2023-08-29T08:13:47.721Z,1.20
2023-08-29T08:16:16.324Z,1.38
2023-08-29T08:18:43.450Z,1.02
2023-08-29T08:21:14.522Z,1.10
2023-08-29T08:23:42.948Z,1.17
2023-08-29T08:26:13.891Z,1.25
2023-08-29T08:28:42.079Z,1.27
2023-08-29T08:31:09.006Z,1.20
2023-08-29T08:33:39.091Z,1.58
2023-08-29T08:36:07.154Z,1.15
2023-08-29T08:38:34.256Z,1.50
2023-08-29T08:41:03.559Z,1.35
2023-08-29T08:43:42.742Z,1.10
2023-08-29T08:46:11.806Z,1.42
2023-08-29T08:48:39.773Z,1.20
2023-08-29T08:51:11.218Z,1.00
2023-08-29T08:53:46.632Z,1.30
2023-08-29T08:56:16.962Z,0.90
2023-08-29T08:58:47.975Z,0.88
2023-08-29T09:01:15.857Z,0.90
2023-08-29T09:03:46.438Z,0.98
2023-08-29T09:06:16.793Z,0.88
2023-08-29T09:08:57.127Z,1.13
2023-08-29T09:11:33.554Z,1.10
2023-08-29T09:14:14.066Z,1.00
2023-08-29T09:16:46.655Z,1.00
2023-08-29T09:19:31.149Z,1.02
2023-08-29T09:25:14.714Z,0.80
2023-08-29T09:28:34.115Z,0.93
2023-08-29T09:34:46.944Z,0.90
2023-08-29T09:44:21.994Z,0.65
2023-08-29T10:00:02.705Z,0.90
2023-08-29T10:03:10.304Z,0.73
2023-08-29T10:06:22.179Z,0.80
2023-08-29T10:09:08.247Z,0.70
2023-08-29T10:12:46.762Z,0.90
2023-08-29T10:21:28.312Z,0.88
2023-08-29T10:24:01.524Z,0.90
2023-08-29T10:26:44.030Z,0.70
2023-08-29T10:29:35.318Z,1.10
2023-08-29T10:32:24.690Z,0.50
2023-08-29T16:18:36.866Z,0.40
2023-08-29T17:07:28.175Z,0.30
2023-08-29T18:17:26.166Z,0.30
2023-08-29T18:24:32.732Z,0.30
2023-08-29T18:28:05.941Z,0.45
2023-08-29T18:31:23.062Z,0.20
2023-08-29T18:36:33.718Z,0.20
2023-08-29T18:45:11.740Z,0.35
2023-08-29T18:57:44.213Z,0.20
2023-08-29T19:01:10.014Z,0.20
2023-08-29T19:13:39.751Z,0.20
2023-08-29T19:17:06.390Z,0.30
2023-08-29T19:23:51.292Z,0.30
2023-08-29T19:33:54.986Z,0.17
2023-08-29T19:36:54.323Z,0.10
2023-08-29T19:42:44.969Z,0.20
2023-08-29T19:46:06.966Z,0.30
2023-08-29T19:48:49.746Z,0.20
2023-08-29T19:58:01.147Z,0.10
2023-08-29T20:04:23.180Z,0.22
2023-08-29T20:32:50.350Z,0.20
2023-08-29T20:57:16.216Z,0.10
2023-08-29T21:13:43.067Z,0.17
2023-08-29T21:20:13.286Z,0.25
2023-08-29T21:29:40.808Z,0.10
2023-08-29T21:35:12.813Z,0.10
2023-08-29T21:37:48.474Z,0.13
2023-08-29T21:46:48.130Z,0.10
2023-08-29T21:49:47.102Z,0.20
2023-08-29T21:53:16.731Z,0.30
2023-08-29T21:56:06.969Z,0.10
2023-08-29T21:59:10.181Z,0.10
2023-08-29T22:49:17.766Z,0.55
2023-08-29T22:53:11.258Z,0.20
2023-08-29T22:56:50.737Z,0.15
2023-08-29T23:17:50.012Z,0.20
